Mexico, Ohio
Current Conditions -  °F | °C
As of 1:53 AM on Thursday 18 Dec 2014 (Local Time) from KMNN Reporting Station
Overcast Overcast  
Wind Chill: 18°   Ceiling: 2300
Heat Index: 27°   Visibility: 8mi
Dew Point: 20°   Wind: 9mph
Humidity: 75%   Direction: 300°WNW
Pressure: 30.22"   Gusts: NA
Location:  40.948°N, 83.1346°W
Report Text: KMNN 180653Z AUTO 30008KT 8SM OVC023 M03/M07 A3022 RMK AO2 SLP247 T10281067 TSNO
Loading
Personal Weather Stations






























Interactive Weather Map New forecast layout! Learn more

10-Day Weather Forecast

Advertisements
Track Severe Weather on mobile